»·PEaware :: N5205X KPSP-KVCV

N5205X :: KPSP-KVCV

FLIGHT INFORMATION

Flight Status: Arrived
Operator: Privately registered:
United States
More flights under this callsign
Pilot: Martin B. (29991)
Aircraft: CIRRUS SR-22 TURBO
(S22T)
More flights by this aircraft type
Origin: KPSP Palm Springs Intl
United States
Destination: KVCV Socal Logistics
United States
More flights between these airports :: More routes between these airports
Route: CATH1 PSP EMRUD PSP V386 SOGGI APLES
File this flight plan on PilotEdge
Remarks: REQ LOC 17 APPROACH KVCV
Altitude:
(Current/Filed)
14,000ft
Speed:
(Current/Filed)
170kts
Departed: 27-Dec-20 10:44 AM
Arrived: 27-Dec-20 11:31 AM
Distance/Time
Traveled:
0nm/0:47
Distance/Time
To Go:
Arrived

Flight Plot

Page will automatically refresh every two minutes.

Flight plan parsing failed; only flown route is shown


Map Options




Map Legend


Flown Route
Filed Route
Departure Airport
Arrival Airport
Navaid (VOR, NDB)
Fix

Horizontal Profiles

Position Reports

Time Latitude Longitude Heading Altitude Ground
Speed
27-Dec-20 10:22 33.825952 -116.509987 180 426ft 0kts
27-Dec-20 10:23 33.825952 -116.509987 180 426ft 0kts
27-Dec-20 10:24 33.825952 -116.509987 180 426ft 0kts
27-Dec-20 10:25 33.825952 -116.509987 180 426ft 0kts
27-Dec-20 10:26 33.825952 -116.509987 180 426ft 0kts
27-Dec-20 10:27 33.825952 -116.509987 180 426ft 0kts
27-Dec-20 10:28 33.825952 -116.509987 180 426ft 0kts
27-Dec-20 10:29 33.825952 -116.509987 180 426ft 0kts
27-Dec-20 10:30 33.825952 -116.509987 180 426ft 0kts
27-Dec-20 10:31 33.825952 -116.509987 180 426ft 0kts
27-Dec-20 10:32 33.825952 -116.509987 180 426ft 0kts
27-Dec-20 10:33 33.825952 -116.509987 180 426ft 0kts
27-Dec-20 10:34 33.825952 -116.509987 180 426ft 0kts
27-Dec-20 10:35 33.825952 -116.509987 180 426ft 0kts
27-Dec-20 10:36 33.826159 -116.509099 145 426ft 10kts
27-Dec-20 10:37 33.825965 -116.506568 85 423ft 7kts
27-Dec-20 10:38 33.823180 -116.503921 139 413ft 23kts
27-Dec-20 10:39 33.818500 -116.499264 106 400ft 3kts
27-Dec-20 10:40 33.818511 -116.499079 95 400ft 0kts
27-Dec-20 10:41 33.818511 -116.499079 95 400ft 0kts
27-Dec-20 10:42 33.818540 -116.498509 65 400ft 13kts
27-Dec-20 10:43 33.831457 -116.510474 319 1198ft 92kts
27-Dec-20 10:44 33.852437 -116.530164 321 2908ft 101kts
27-Dec-20 10:46 33.873051 -116.549966 319 4896ft 92kts
27-Dec-20 10:47 33.893675 -116.568571 344 6405ft 99kts
27-Dec-20 10:48 33.901629 -116.539273 108 7830ft 123kts
27-Dec-20 10:49 33.890652 -116.500514 113 9046ft 123kts
27-Dec-20 10:50 33.879022 -116.460817 112 9893ft 127kts
27-Dec-20 10:51 33.899519 -116.439724 320 10697ft 110kts
27-Dec-20 10:52 33.923905 -116.461521 328 11503ft 115kts
27-Dec-20 10:53 33.956277 -116.472362 338 12293ft 123kts
27-Dec-20 10:54 33.989612 -116.483219 337 13009ft 133kts
27-Dec-20 10:55 34.031206 -116.496691 339 13002ft 168kts
27-Dec-20 10:56 34.077774 -116.511715 340 13006ft 190kts
27-Dec-20 10:57 34.130570 -116.530311 338 12992ft 199kts
27-Dec-20 10:58 34.183263 -116.550878 338 13003ft 198kts
27-Dec-20 10:59 34.235016 -116.570945 337 13413ft 188kts
27-Dec-20 10:59 34.275915 -116.587091 337 13975ft 190kts
27-Dec-20 11:01 34.337638 -116.612139 331 14007ft 207kts
27-Dec-20 11:02 34.391024 -116.633468 334 14005ft 194kts
27-Dec-20 11:02 34.433194 -116.649763 329 14004ft 188kts
27-Dec-20 11:03 34.482650 -116.670085 331 14020ft 188kts
27-Dec-20 11:04 34.506705 -116.711610 271 14021ft 156kts
27-Dec-20 11:05 34.512423 -116.763741 273 14019ft 156kts
27-Dec-20 11:06 34.517708 -116.815895 270 14016ft 155kts
27-Dec-20 11:07 34.522589 -116.868107 271 13686ft 153kts
27-Dec-20 11:08 34.527203 -116.916983 270 12936ft 128kts
27-Dec-20 11:09 34.530534 -116.950101 283 11762ft 114kts
27-Dec-20 11:10 34.532829 -116.975040 270 10923ft 94kts
27-Dec-20 11:11 34.534518 -116.995914 272 10245ft 107kts
27-Dec-20 11:12 34.538281 -117.037124 275 9025ft 105kts
27-Dec-20 11:13 34.542551 -117.082614 278 8040ft 102kts
27-Dec-20 11:14 34.546969 -117.130113 278 8022ft 150kts
27-Dec-20 11:15 34.584063 -117.142977 358 8023ft 163kts
27-Dec-20 11:16 34.628792 -117.146347 347 8019ft 160kts
27-Dec-20 11:17 34.671136 -117.160965 335 8017ft 157kts
27-Dec-20 11:18 34.707393 -117.184435 324 7676ft 131kts
27-Dec-20 11:19 34.733793 -117.210113 316 7193ft 115kts
27-Dec-20 11:20 34.754775 -117.238176 308 6741ft 110kts
27-Dec-20 11:21 34.770364 -117.266488 301 6603ft 87kts
27-Dec-20 11:22 34.782344 -117.295949 294 6489ft 148kts
27-Dec-20 11:23 34.792921 -117.345860 254 5172ft 116kts
27-Dec-20 11:24 34.773606 -117.365902 226 5164ft 83kts
27-Dec-20 11:25 34.749309 -117.385353 200 5260ft 150kts
27-Dec-20 11:26 34.714245 -117.387881 183 4669ft 109kts
27-Dec-20 11:27 34.683209 -117.387596 181 4072ft 115kts
27-Dec-20 11:28 34.651932 -117.387223 181 3453ft 111kts
27-Dec-20 11:30 34.617252 -117.386861 179 2836ft 77kts
27-Dec-20 11:30 34.610708 -117.385590 89 2832ft 2kts
27-Dec-20 11:31 34.610717 -117.385486 83 2832ft 12kts
27-Dec-20 11:32 34.606012 -117.384147 180 2840ft 27kts
27-Dec-20 11:33 34.598516 -117.384072 180 2852ft 27kts
27-Dec-20 11:34 34.592889 -117.381565 134 2865ft 16kts
27-Dec-20 11:35 34.589857 -117.377834 131 2870ft 19kts
27-Dec-20 11:36 34.587755 -117.375445 234 2875ft 6kts
27-Dec-20 11:37 34.587715 -117.375692 323 2875ft 0kts
27-Dec-20 11:38 34.587715 -117.375692 323 2875ft 0kts
27-Dec-20 11:39 34.587715 -117.375692 323 2875ft 0kts
27-Dec-20 11:40 33.825948 -116.509987 180 427ft 0kts
27-Dec-20 11:41 33.825948 -116.509987 180 427ft 0kts
27-Dec-20 11:42 33.825948 -116.509987 180 427ft 0kts
27-Dec-20 11:43 33.825948 -116.509987 180 427ft 0kts
27-Dec-20 11:44 33.825948 -116.509987 180 427ft 0kts

Navigation Log

Ident Type
Flight plan parsing failed, navigation log unavailable